createdAt,value
2019-04-01T00:01:54.871Z,160.95
2019-04-01T00:04:21.976Z,161.00
2019-04-01T00:06:49.050Z,158.75
2019-04-01T00:09:16.504Z,158.15
2019-04-01T00:11:43.643Z,159.78
2019-04-01T00:14:10.721Z,159.70
2019-04-01T00:16:38.638Z,160.78
2019-04-01T00:19:05.820Z,161.73
2019-04-01T00:21:33.053Z,162.32
2019-04-01T00:24:00.501Z,162.12
2019-04-01T00:26:27.611Z,161.35
2019-04-01T00:28:54.803Z,159.35
2019-04-01T00:31:22.326Z,159.57
2019-04-01T00:33:49.400Z,157.25
2019-04-01T00:36:16.418Z,161.75
2019-04-01T00:38:43.937Z,161.97
2019-04-01T00:41:15.408Z,160.55
2019-04-01T00:43:56.536Z,160.78
2019-04-01T00:46:24.096Z,162.72
2019-04-01T00:48:52.215Z,161.15
2019-04-01T00:51:19.285Z,163.47
2019-04-01T00:53:47.531Z,162.72
2019-04-01T00:56:14.560Z,161.45
2019-04-01T00:58:44.158Z,161.30
2019-04-01T01:01:11.218Z,161.77
2019-04-01T01:03:38.250Z,158.82
2019-04-01T01:06:05.801Z,161.97
2019-04-01T01:08:32.866Z,163.65
2019-04-01T01:10:59.892Z,161.73
2019-04-01T01:13:26.991Z,161.75
2019-04-01T01:15:54.014Z,160.93
2019-04-01T01:18:21.068Z,162.60
2019-04-01T01:20:48.158Z,160.25
2019-04-01T01:23:15.174Z,160.43
2019-04-01T01:25:42.597Z,162.72
2019-04-01T01:28:09.719Z,159.07
2019-04-01T01:30:36.843Z,160.93
2019-04-01T01:33:04.288Z,161.62
2019-04-01T01:35:32.565Z,159.87
2019-04-01T01:37:59.600Z,159.30
2019-04-01T01:40:26.659Z,161.18
2019-04-01T01:42:53.730Z,159.72
2019-04-01T01:45:20.766Z,160.93
2019-04-01T01:47:47.791Z,160.95
2019-04-01T01:50:14.874Z,160.55
2019-04-01T01:52:42.315Z,160.22
2019-04-01T01:55:09.387Z,161.60
2019-04-01T01:57:36.481Z,162.68
2019-04-01T02:00:04.444Z,160.43
2019-04-01T02:02:32.705Z,163.97
2019-04-01T02:04:59.768Z,160.63
2019-04-01T02:07:26.814Z,161.22
2019-04-01T02:09:53.855Z,161.92
2019-04-01T02:12:20.885Z,161.75
2019-04-01T02:14:48.405Z,161.47
2019-04-01T02:17:15.473Z,160.48
2019-04-01T02:19:42.551Z,161.00
2019-04-01T02:22:09.609Z,161.68
2019-04-01T02:24:36.677Z,161.43
2019-04-01T02:27:03.727Z,158.52
2019-04-01T02:29:31.117Z,159.22
2019-04-01T02:31:58.267Z,161.30
2019-04-01T02:34:25.328Z,160.72
2019-04-01T02:36:53.496Z,158.45
2019-04-01T02:39:21.732Z,158.40
2019-04-01T02:41:48.793Z,157.18
2019-04-01T02:44:16.207Z,159.80
2019-04-01T02:46:43.270Z,157.70
2019-04-01T02:49:10.309Z,159.93
2019-04-01T02:51:37.382Z,158.85
2019-04-01T02:54:04.403Z,157.45
2019-04-01T02:56:31.522Z,155.15
2019-04-01T02:58:58.536Z,156.55
2019-04-01T03:01:26.036Z,159.80
2019-04-01T03:03:53.493Z,156.05
2019-04-01T03:06:20.502Z,155.20
2019-04-01T03:08:48.950Z,155.22
2019-04-01T03:11:16.442Z,155.40
2019-04-01T03:13:43.488Z,156.75
2019-04-01T03:16:10.567Z,155.22
2019-04-01T03:18:37.588Z,156.50
2019-04-01T03:21:04.665Z,153.40
2019-04-01T03:23:33.262Z,157.00
2019-04-01T03:26:00.373Z,152.17
2019-04-01T03:28:27.482Z,155.78
2019-04-01T03:30:55.233Z,154.82
2019-04-01T03:33:22.329Z,155.85
2019-04-01T03:35:49.395Z,155.12
2019-04-01T03:38:16.825Z,155.12
2019-04-01T03:40:43.959Z,153.85
2019-04-01T03:43:10.994Z,154.80
2019-04-01T03:45:38.691Z,156.07
2019-04-01T03:48:05.749Z,155.90
2019-04-01T03:50:32.771Z,154.05
2019-04-01T03:52:59.831Z,153.05
2019-04-01T03:55:26.887Z,153.42
2019-04-01T03:57:53.991Z,152.40
2019-04-01T04:00:21.647Z,153.87
2019-04-01T04:02:48.758Z,153.18
2019-04-01T04:05:15.970Z,153.65
2019-04-01T04:07:42.975Z,150.57
2019-04-01T04:10:10.343Z,153.87
2019-04-01T04:12:37.332Z,155.00
2019-04-01T04:15:06.497Z,153.68
2019-04-01T04:17:35.045Z,153.78
2019-04-01T04:20:02.301Z,154.78
2019-04-01T04:22:29.329Z,151.50
2019-04-01T04:24:56.711Z,153.27
2019-04-01T04:27:23.744Z,153.62
2019-04-01T04:29:51.099Z,152.17
2019-04-01T04:32:18.166Z,152.07
2019-04-01T04:34:45.194Z,151.65
2019-04-01T04:37:12.593Z,150.95
2019-04-01T04:39:39.923Z,152.70
2019-04-01T04:42:06.949Z,152.72
2019-04-01T04:44:33.987Z,152.05
2019-04-01T04:47:04.453Z,151.78
2019-04-01T04:49:31.495Z,153.05
2019-04-01T04:51:58.551Z,150.78
2019-04-01T04:54:26.138Z,151.42
2019-04-01T04:56:53.160Z,152.22
2019-04-01T04:59:20.207Z,154.32
2019-04-01T05:01:47.290Z,151.00
2019-04-01T05:04:14.491Z,154.50
2019-04-01T05:06:41.709Z,153.55
2019-04-01T05:09:09.234Z,152.05
2019-04-01T05:11:36.740Z,153.87
2019-04-01T05:14:03.826Z,152.40
2019-04-01T05:16:31.260Z,152.57
2019-04-01T05:18:58.315Z,150.75
2019-04-01T05:21:27.503Z,154.75
2019-04-01T05:23:55.404Z,153.10
2019-04-01T05:26:23.894Z,151.47
2019-04-01T05:28:52.819Z,152.68
2019-04-01T05:31:22.837Z,149.53
2019-04-01T05:33:55.636Z,150.80
2019-04-01T05:36:24.048Z,151.07
2019-04-01T05:38:51.761Z,151.70
2019-04-01T05:41:20.294Z,150.18
2019-04-01T05:43:49.698Z,150.05
2019-04-01T05:46:16.962Z,150.68
2019-04-01T05:48:44.012Z,151.68
2019-04-01T05:51:11.749Z,151.02
2019-04-01T05:53:38.838Z,152.38
2019-04-01T05:56:06.901Z,150.93
2019-04-01T05:58:34.540Z,149.32
2019-04-01T06:01:11.740Z,149.82
2019-04-01T06:03:39.162Z,151.47
2019-04-01T06:06:07.191Z,154.55
2019-04-01T06:08:34.683Z,152.20
2019-04-01T06:11:01.808Z,151.87
2019-04-01T06:13:28.852Z,151.65
2019-04-01T06:15:56.768Z,151.15
2019-04-01T06:18:23.953Z,154.05
2019-04-01T06:20:51.321Z,154.45
2019-04-01T06:23:18.386Z,153.72
2019-04-01T06:25:45.858Z,155.03
2019-04-01T06:28:13.067Z,153.45
2019-04-01T06:30:40.639Z,154.55
2019-04-01T06:33:08.687Z,152.78
2019-04-01T06:35:35.792Z,152.10
2019-04-01T06:38:02.937Z,156.70
2019-04-01T06:40:30.068Z,152.45
2019-04-01T06:42:57.451Z,154.18
2019-04-01T06:45:24.660Z,153.60
2019-04-01T06:47:51.870Z,153.35
2019-04-01T06:50:18.896Z,174.45
2019-04-01T06:52:45.987Z,152.32
2019-04-01T06:55:13.264Z,152.53
2019-04-01T06:57:40.921Z,153.82
2019-04-01T07:00:08.249Z,152.43
2019-04-01T07:02:35.443Z,155.60
2019-04-01T07:05:03.622Z,150.38
2019-04-01T07:07:31.759Z,151.63
2019-04-01T07:09:58.849Z,153.95
2019-04-01T07:12:25.940Z,154.12
2019-04-01T07:14:53.339Z,152.80
2019-04-01T07:17:20.836Z,153.35
2019-04-01T07:19:50.410Z,155.12
2019-04-01T07:22:19.338Z,155.82
2019-04-01T07:24:46.454Z,153.95
2019-04-01T07:27:13.469Z,154.50
2019-04-01T07:29:40.485Z,155.45
2019-04-01T07:32:07.566Z,152.07
2019-04-01T07:34:34.649Z,154.07
2019-04-01T07:37:02.359Z,155.85
2019-04-01T07:39:29.448Z,156.43
2019-04-01T07:41:56.543Z,153.42
2019-04-01T07:44:23.662Z,155.30
2019-04-01T07:46:50.808Z,157.78
2019-04-01T07:49:17.846Z,155.48
2019-04-01T07:51:48.626Z,153.82
2019-04-01T07:54:18.510Z,155.05
2019-04-01T07:56:44.803Z,156.00
2019-04-01T07:59:12.685Z,157.40
2019-04-01T08:01:41.568Z,156.63
2019-04-01T08:04:08.728Z,156.72
2019-04-01T08:06:35.765Z,156.12
2019-04-01T08:09:05.108Z,156.95
2019-04-01T08:11:32.536Z,156.57
2019-04-01T08:14:00.168Z,155.50
2019-04-01T08:16:27.402Z,156.55
2019-04-01T08:18:54.545Z,157.37
2019-04-01T08:21:21.677Z,158.15
2019-04-01T08:23:48.743Z,161.05
2019-04-01T08:26:16.187Z,159.87
2019-04-01T08:28:43.320Z,160.70
2019-04-01T08:31:13.309Z,159.72
2019-04-01T08:33:41.922Z,159.85
2019-04-01T08:36:09.300Z,160.37
2019-04-01T08:38:36.761Z,160.50
2019-04-01T08:41:04.532Z,160.37
2019-04-01T08:43:31.588Z,161.45
2019-04-01T08:45:59.083Z,162.32
2019-04-01T08:48:26.812Z,159.00
2019-04-01T08:50:53.889Z,159.65
2019-04-01T08:53:20.992Z,160.88
2019-04-01T08:55:48.467Z,163.00
2019-04-01T08:58:15.609Z,161.12
2019-04-01T09:00:42.897Z,160.95
2019-04-01T09:03:10.082Z,161.05
2019-04-01T09:05:37.760Z,161.85
2019-04-01T09:08:04.916Z,160.22
2019-04-01T09:10:35.842Z,161.50
2019-04-01T09:13:02.869Z,162.43
2019-04-01T09:15:31.954Z,162.62
2019-04-01T09:17:59.007Z,164.50
2019-04-01T09:20:26.100Z,162.92
2019-04-01T09:22:54.327Z,163.28
2019-04-01T09:25:21.793Z,162.18
2019-04-01T09:27:48.941Z,162.72
2019-04-01T09:30:18.718Z,163.18
2019-04-01T09:32:45.749Z,165.12
2019-04-01T09:35:13.073Z,164.85
2019-04-01T09:37:40.188Z,163.05
2019-04-01T09:40:07.986Z,160.35
2019-04-01T09:42:35.186Z,162.40
2019-04-01T09:45:02.521Z,164.10
2019-04-01T09:47:31.142Z,162.97
2019-04-01T09:49:58.228Z,162.88
2019-04-01T09:52:25.378Z,162.12
2019-04-01T09:54:52.412Z,163.97
2019-04-01T09:57:19.434Z,161.25
2019-04-01T09:59:46.617Z,164.67
2019-04-01T10:02:13.942Z,164.62
2019-04-01T10:04:41.085Z,163.57
2019-04-01T10:07:08.192Z,163.35
2019-04-01T10:09:35.574Z,164.05
2019-04-01T10:12:02.826Z,165.50
2019-04-01T10:14:29.945Z,165.70
2019-04-01T10:16:57.594Z,166.50
2019-04-01T10:19:24.732Z,163.55
2019-04-01T10:21:52.326Z,164.40
2019-04-01T10:24:20.237Z,164.65
2019-04-01T10:26:48.630Z,166.15
2019-04-01T10:29:16.039Z,166.32
2019-04-01T10:31:43.086Z,166.62
2019-04-01T10:34:10.796Z,166.70
2019-04-01T10:36:37.968Z,166.80
2019-04-01T10:39:06.521Z,167.22
2019-04-01T10:41:34.056Z,167.82
2019-04-01T10:44:04.623Z,166.53
2019-04-01T10:46:30.170Z,166.18
2019-04-01T10:48:58.960Z,171.22
2019-04-01T10:51:26.159Z,168.07
2019-04-01T10:53:53.467Z,168.43
2019-04-01T10:56:21.106Z,166.57
2019-04-01T10:58:48.230Z,168.43
2019-04-01T11:01:15.235Z,168.93
2019-04-01T11:03:42.651Z,168.95
2019-04-01T11:06:09.761Z,169.15
2019-04-01T11:08:36.772Z,167.90
2019-04-01T11:11:04.510Z,169.75
2019-04-01T11:13:32.130Z,169.17
2019-04-01T11:15:59.379Z,168.87
2019-04-01T11:18:26.589Z,169.37
2019-04-01T11:20:56.704Z,171.05
2019-04-01T11:23:23.020Z,169.62
2019-04-01T11:25:50.085Z,172.95
2019-04-01T11:28:17.330Z,172.90
2019-04-01T11:30:44.367Z,172.10
2019-04-01T11:33:11.549Z,171.95
2019-04-01T11:35:38.716Z,173.45
2019-04-01T11:38:05.750Z,172.50
2019-04-01T11:40:33.305Z,174.15
2019-04-01T11:43:00.950Z,172.75
2019-04-01T11:45:29.625Z,175.07
2019-04-01T11:47:57.308Z,174.75
2019-04-01T11:50:25.314Z,173.60
2019-04-01T11:52:53.046Z,173.43
2019-04-01T11:55:20.115Z,171.98
2019-04-01T11:57:47.397Z,172.78
2019-04-01T12:00:17.276Z,172.60
2019-04-01T12:02:46.158Z,171.77
2019-04-01T12:05:15.218Z,171.15
2019-04-01T12:07:42.340Z,172.98
2019-04-01T12:10:09.797Z,173.85
2019-04-01T12:12:36.918Z,174.45
2019-04-01T12:15:05.002Z,172.22
2019-04-01T12:17:32.661Z,171.98
2019-04-01T12:19:59.777Z,174.27
2019-04-01T12:22:26.804Z,173.70
2019-04-01T12:24:54.427Z,174.82
2019-04-01T12:27:21.755Z,173.25
2019-04-01T12:29:50.373Z,173.25
2019-04-01T12:32:17.485Z,174.18
2019-04-01T12:34:44.570Z,173.50
2019-04-01T12:37:12.919Z,176.70
2019-04-01T12:39:41.226Z,178.50
2019-04-01T12:42:08.676Z,172.82
2019-04-01T12:44:35.743Z,177.35
2019-04-01T12:47:03.865Z,175.20
2019-04-01T12:49:31.143Z,177.68
2019-04-01T12:52:05.859Z,174.47
2019-04-01T12:54:39.250Z,170.62
2019-04-01T12:57:07.355Z,173.70
2019-04-01T12:59:34.703Z,174.35
2019-04-01T13:02:01.792Z,171.85
2019-04-01T13:04:28.932Z,173.97
2019-04-01T13:06:57.138Z,173.72
2019-04-01T13:09:24.662Z,175.42
2019-04-01T13:11:51.736Z,175.30
2019-04-01T13:14:18.762Z,176.60
2019-04-01T13:16:45.901Z,174.15
2019-04-01T13:19:12.959Z,174.05
2019-04-01T13:21:40.569Z,174.07
2019-04-01T13:24:07.673Z,176.00
2019-04-01T13:26:34.706Z,173.53
2019-04-01T13:29:01.780Z,176.30
2019-04-01T13:31:29.823Z,177.30
2019-04-01T13:33:56.982Z,173.20
2019-04-01T13:36:24.082Z,178.57
2019-04-01T13:38:51.457Z,175.65
2019-04-01T13:41:18.522Z,176.82
2019-04-01T13:43:50.052Z,174.20
2019-04-01T13:46:17.179Z,174.00
2019-04-01T13:48:56.865Z,175.45
2019-04-01T13:51:17.088Z,175.22
2019-04-01T13:53:44.570Z,173.50
2019-04-01T13:56:13.458Z,175.35
2019-04-01T13:58:46.058Z,173.68
2019-04-01T14:01:13.557Z,174.10
2019-04-01T14:03:45.040Z,173.28
2019-04-01T14:06:39.912Z,178.18
2019-04-01T14:12:51.351Z,173.57
2019-04-01T14:15:18.679Z,174.32
2019-04-01T14:17:46.139Z,175.38
2019-04-01T14:20:16.250Z,174.05
2019-04-01T14:22:53.693Z,177.07
2019-04-01T14:25:36.661Z,174.40
2019-04-01T14:28:10.135Z,173.90
2019-04-01T14:30:39.700Z,173.17
2019-04-01T14:33:07.579Z,173.02
2019-04-01T14:35:35.633Z,172.95
2019-04-01T14:38:04.081Z,173.38
2019-04-01T14:40:35.562Z,178.62
2019-04-01T14:43:02.648Z,178.05
2019-04-01T14:45:34.658Z,176.27
2019-04-01T14:48:02.634Z,174.70
2019-04-01T14:50:30.257Z,176.05
2019-04-01T14:52:58.039Z,173.45
2019-04-01T14:55:25.310Z,176.35
2019-04-01T14:57:52.415Z,175.68
2019-04-01T15:00:20.479Z,172.25
2019-04-01T15:02:47.666Z,172.37
2019-04-01T15:05:15.245Z,171.65
2019-04-01T15:07:42.290Z,171.45
2019-04-01T15:10:11.175Z,173.40
2019-04-01T15:12:38.737Z,172.10
2019-04-01T15:15:10.714Z,176.35
2019-04-01T15:17:37.905Z,173.53
2019-04-01T15:20:06.776Z,171.37
2019-04-01T15:22:33.834Z,171.72
2019-04-01T15:25:00.923Z,173.50
2019-04-01T15:27:29.406Z,172.30
2019-04-01T15:29:57.393Z,172.17
2019-04-01T15:32:26.631Z,171.87
2019-04-01T15:34:53.715Z,172.17
2019-04-01T15:37:20.786Z,176.25
2019-04-01T15:39:49.695Z,170.72
2019-04-01T15:42:17.610Z,171.45
2019-04-01T15:44:44.728Z,170.43
2019-04-01T15:47:11.846Z,172.50
2019-04-01T15:49:40.087Z,170.68
2019-04-01T15:52:07.358Z,172.07
2019-04-01T15:54:34.514Z,172.45
2019-04-01T15:57:01.908Z,173.43
2019-04-01T15:59:30.048Z,171.47
2019-04-01T16:01:59.101Z,170.00
2019-04-01T16:04:27.423Z,174.00
2019-04-01T16:06:56.060Z,173.53
2019-04-01T16:09:24.385Z,171.40
2019-04-01T16:11:54.137Z,171.82
2019-04-01T16:14:21.778Z,174.18
2019-04-01T16:16:48.940Z,171.72
2019-04-01T16:19:16.077Z,171.95
2019-04-01T16:21:43.155Z,170.28
2019-04-01T16:24:11.167Z,170.90
2019-04-01T16:26:38.551Z,168.82
2019-04-01T16:29:05.728Z,171.60
2019-04-01T16:31:34.626Z,173.68
2019-04-01T16:34:02.212Z,169.90
2019-04-01T16:36:29.641Z,169.07
2019-04-01T16:38:56.854Z,169.45
2019-04-01T16:41:23.987Z,170.32
2019-04-01T16:43:51.155Z,170.90
2019-04-01T16:46:18.551Z,169.45
2019-04-01T16:48:48.169Z,171.18
2019-04-01T16:51:15.220Z,169.80
2019-04-01T16:53:44.353Z,169.07
2019-04-01T16:56:11.645Z,168.00
2019-04-01T16:58:38.762Z,168.35
2019-04-01T17:01:06.176Z,168.78
2019-04-01T17:03:33.652Z,170.05
2019-04-01T17:06:07.122Z,168.90
2019-04-01T17:08:34.831Z,171.35
2019-04-01T17:11:02.639Z,169.32
2019-04-01T17:13:29.905Z,171.02
2019-04-01T17:15:56.962Z,167.93
2019-04-01T17:18:24.600Z,167.43
2019-04-01T17:20:53.156Z,168.15
2019-04-01T17:23:20.543Z,170.45
2019-04-01T17:25:47.831Z,168.22
2019-04-01T17:28:16.272Z,169.93
2019-04-01T17:30:43.693Z,168.70
2019-04-01T17:33:11.261Z,169.17
2019-04-01T17:35:38.641Z,168.75
2019-04-01T17:38:07.291Z,168.13
2019-04-01T17:40:34.538Z,166.37
2019-04-01T17:43:01.851Z,167.50
2019-04-01T17:45:37.282Z,165.15
2019-04-01T17:48:05.591Z,168.60
2019-04-01T17:50:34.878Z,165.92
2019-04-01T17:53:03.760Z,167.45
2019-04-01T17:55:30.870Z,167.25
2019-04-01T17:57:58.121Z,165.88
2019-04-01T18:00:27.307Z,166.28
2019-04-01T18:02:54.705Z,168.13
2019-04-01T18:05:21.972Z,166.25
2019-04-01T18:07:50.643Z,164.60
2019-04-01T18:10:18.244Z,167.35
2019-04-01T18:12:45.602Z,168.45
2019-04-01T18:15:13.255Z,165.37
2019-04-01T18:17:41.290Z,165.55
2019-04-01T18:20:09.177Z,165.37
2019-04-01T18:22:37.942Z,163.77
2019-04-01T18:25:05.440Z,168.93
2019-04-01T18:27:32.597Z,167.40
2019-04-01T18:29:59.842Z,164.20
2019-04-01T18:32:27.072Z,166.88
2019-04-01T18:34:54.133Z,167.82
2019-04-01T18:37:21.542Z,167.35
2019-04-01T18:39:50.838Z,166.88
2019-04-01T18:42:18.444Z,161.28
2019-04-01T18:44:46.635Z,164.47
2019-04-01T18:47:13.674Z,164.07
2019-04-01T18:49:45.906Z,164.45
2019-04-01T18:52:13.473Z,165.37
2019-04-01T18:54:42.196Z,165.75
2019-04-01T18:57:12.307Z,169.15
2019-04-01T18:59:39.621Z,163.75
2019-04-01T19:02:07.377Z,162.22
2019-04-01T19:04:34.490Z,164.52
2019-04-01T19:07:01.802Z,163.70
2019-04-01T19:09:28.837Z,164.30
2019-04-01T19:12:03.838Z,163.65
2019-04-01T19:14:25.039Z,162.20
2019-04-01T19:16:53.432Z,162.18
2019-04-01T19:19:20.497Z,162.62
2019-04-01T19:21:47.688Z,164.37
2019-04-01T19:24:16.628Z,160.95
2019-04-01T19:26:44.964Z,162.12
2019-04-01T19:29:12.637Z,161.77
2019-04-01T19:31:41.288Z,161.68
2019-04-01T19:34:08.882Z,160.12
2019-04-01T19:36:37.817Z,160.32
2019-04-01T19:39:09.348Z,160.57
2019-04-01T19:41:39.679Z,160.40
2019-04-01T19:44:06.994Z,160.63
2019-04-01T19:46:34.593Z,160.97
2019-04-01T19:49:04.968Z,161.88
2019-04-01T19:51:30.866Z,162.62
2019-04-01T19:53:58.534Z,161.05
2019-04-01T19:56:28.576Z,161.92
2019-04-01T19:58:55.673Z,162.35
2019-04-01T20:01:25.003Z,162.45
2019-04-01T20:03:52.147Z,160.43
2019-04-01T20:06:19.284Z,164.30
2019-04-01T20:08:49.604Z,160.60
2019-04-01T20:11:15.751Z,162.43
2019-04-01T20:13:43.375Z,161.68
2019-04-01T20:16:12.714Z,160.03
2019-04-01T20:18:42.447Z,161.18
2019-04-01T20:21:09.799Z,161.07
2019-04-01T20:23:37.014Z,161.85
2019-04-01T20:26:04.119Z,159.57
2019-04-01T20:28:31.625Z,162.03
2019-04-01T20:31:00.676Z,161.12
2019-04-01T20:33:27.754Z,161.05
2019-04-01T20:35:54.827Z,162.25
2019-04-01T20:38:22.025Z,160.57
2019-04-01T20:40:50.555Z,162.90
2019-04-01T20:43:19.070Z,161.32
2019-04-01T20:45:46.137Z,161.50
2019-04-01T20:48:13.269Z,162.47
2019-04-01T20:50:42.131Z,160.97
2019-04-01T20:53:09.557Z,159.93
2019-04-01T20:55:47.585Z,159.52
2019-04-01T20:58:05.985Z,160.97
2019-04-01T21:00:34.155Z,160.07
2019-04-01T21:03:01.693Z,160.95
2019-04-01T21:05:28.929Z,159.20
2019-04-01T21:07:56.292Z,159.32
2019-04-01T21:10:23.382Z,158.82
2019-04-01T21:12:50.631Z,158.47
2019-04-01T21:15:18.382Z,158.00
2019-04-01T21:17:47.332Z,158.18
2019-04-01T21:20:14.673Z,159.27
2019-04-01T21:22:41.748Z,159.60
2019-04-01T21:25:09.371Z,159.18
2019-04-01T21:27:36.811Z,157.18
2019-04-01T21:30:06.116Z,160.20
2019-04-01T21:32:34.529Z,159.52
2019-04-01T21:35:01.625Z,158.47
2019-04-01T21:37:28.679Z,160.55
2019-04-01T21:39:56.563Z,159.48
2019-04-01T21:42:24.578Z,158.82
2019-04-01T21:44:51.629Z,160.18
2019-04-01T21:47:18.957Z,159.30
2019-04-01T21:49:46.309Z,159.35
2019-04-01T21:52:13.349Z,159.22
2019-04-01T21:54:40.530Z,160.85
2019-04-01T21:57:09.804Z,159.72
2019-04-01T21:59:36.878Z,159.63
2019-04-01T22:02:05.582Z,160.72
2019-04-01T22:04:33.990Z,159.82
2019-04-01T22:07:01.272Z,160.10
2019-04-01T22:09:28.691Z,161.52
2019-04-01T22:11:55.816Z,159.55
2019-04-01T22:14:23.005Z,162.30
2019-04-01T22:16:50.113Z,160.50
2019-04-01T22:19:17.599Z,159.67
2019-04-01T22:21:44.640Z,161.15
2019-04-01T22:24:11.807Z,159.70
2019-04-01T22:26:38.896Z,161.65
2019-04-01T22:29:05.936Z,159.95
2019-04-01T22:31:34.088Z,160.10
2019-04-01T22:34:01.170Z,161.12
2019-04-01T22:36:31.328Z,163.15
2019-04-01T22:39:00.839Z,160.67
2019-04-01T22:41:29.282Z,160.60
2019-04-01T22:43:57.865Z,160.80
2019-04-01T22:46:24.990Z,161.35
2019-04-01T22:48:52.060Z,164.03
2019-04-01T22:51:21.174Z,162.75
2019-04-01T22:53:48.321Z,163.68
2019-04-01T22:56:15.407Z,161.07
2019-04-01T22:58:42.474Z,161.55
2019-04-01T23:01:09.625Z,162.57
2019-04-01T23:03:36.814Z,161.15
2019-04-01T23:06:06.071Z,162.20
2019-04-01T23:08:33.172Z,160.15
2019-04-01T23:11:00.773Z,160.40
2019-04-01T23:13:28.031Z,159.80
2019-04-01T23:15:55.095Z,160.82
2019-04-01T23:18:22.193Z,161.60
2019-04-01T23:20:49.721Z,160.97
2019-04-01T23:23:18.614Z,160.30
2019-04-01T23:25:45.968Z,161.20
2019-04-01T23:28:13.369Z,160.40
2019-04-01T23:30:42.227Z,160.45
2019-04-01T23:33:09.796Z,162.45
2019-04-01T23:35:37.176Z,160.20
2019-04-01T23:38:04.237Z,160.48
2019-04-01T23:40:33.226Z,160.57
2019-04-01T23:43:01.642Z,159.75
2019-04-01T23:45:28.675Z,159.70
2019-04-01T23:47:56.833Z,160.67
2019-04-01T23:50:23.863Z,159.05
2019-04-01T23:52:50.906Z,159.20
2019-04-01T23:55:18.377Z,157.57
2019-04-01T23:57:45.413Z,158.40
